Oroshaza, Hungary
Current Conditions -  °F | °C
As of 2:45 AM on Thursday 27 Nov 2014 (Local Time) from LHUD Reporting Station
Haze Haze  
Wind Chill: 34°   Ceiling: 2000
Heat Index: 34°   Visibility: 1.2mi
Dew Point: 32°   Wind: 3mph
Humidity: 93%   Direction: 70°ENE
Pressure: 30.21"   Gusts: NA
Location:  46.57°N, 20.67°E
Report Text: LHUD 270045Z 07003KT 2000 BR BKN020 01/00 Q1023
Loading
Personal Weather Stations






























Interactive Weather Map New forecast layout! Learn more

10-Day Weather Forecast

Advertisements
Track Severe Weather on mobile